createdAt,value
2018-01-01T00:02:03.569Z,92.2
2018-01-01T00:07:03.447Z,92.7
2018-01-01T00:12:03.221Z,92.9
2018-01-01T00:17:03.386Z,92.9
2018-01-01T00:22:03.946Z,92.4
2018-01-01T00:27:03.914Z,91.7
2018-01-01T00:32:03.708Z,91.1
2018-01-01T00:37:03.830Z,92.8
2018-01-01T00:42:03.370Z,92.8
2018-01-01T00:47:03.242Z,93.7
2018-01-01T00:52:03.757Z,94.3
2018-01-01T00:57:03.575Z,94.2
2018-01-01T01:02:03.634Z,94.2
2018-01-01T01:07:03.503Z,94.3
2018-01-01T01:12:03.681Z,94.2
2018-01-01T01:17:03.654Z,94.0
2018-01-01T01:22:03.934Z,94.0
2018-01-01T01:27:03.749Z,94.3
2018-01-01T01:32:03.453Z,94.2
2018-01-01T01:37:03.269Z,94.1
2018-01-01T01:42:03.212Z,94.0
2018-01-01T01:47:03.293Z,94.1
2018-01-01T01:52:03.422Z,94.2
2018-01-01T01:57:03.516Z,94.2
2018-01-01T02:02:03.368Z,93.9
2018-01-01T02:07:03.532Z,93.3
2018-01-01T02:12:03.275Z,93.6
2018-01-01T02:17:03.461Z,93.6
2018-01-01T02:22:03.431Z,93.5
2018-01-01T02:27:03.448Z,93.8
2018-01-01T02:32:03.379Z,93.8
2018-01-01T02:37:03.093Z,93.8
2018-01-01T02:42:03.944Z,93.5
2018-01-01T02:47:03.099Z,93.7
2018-01-01T02:52:03.785Z,93.7
2018-01-01T02:57:03.576Z,93.7
2018-01-01T03:02:03.618Z,93.4
2018-01-01T03:07:03.271Z,93.5
2018-01-01T03:12:03.351Z,93.6
2018-01-01T03:17:03.620Z,93.6
2018-01-01T03:22:03.435Z,93.5
2018-01-01T03:27:03.522Z,93.3
2018-01-01T03:32:03.531Z,93.1
2018-01-01T03:37:03.318Z,93.0
2018-01-01T03:42:03.410Z,93.0
2018-01-01T03:47:03.632Z,93.0
2018-01-01T03:52:03.720Z,92.8
2018-01-01T03:57:03.807Z,92.9
2018-01-01T04:02:03.990Z,92.8
2018-01-01T04:07:03.277Z,92.7
2018-01-01T04:12:03.566Z,92.7
2018-01-01T04:17:03.625Z,92.7
2018-01-01T04:22:03.730Z,92.6
2018-01-01T04:27:03.757Z,92.4
2018-01-01T04:32:03.928Z,92.2
2018-01-01T04:37:04.026Z,92.2
2018-01-01T04:42:03.942Z,91.7
2018-01-01T04:47:03.945Z,91.7
2018-01-01T04:52:03.042Z,91.2
2018-01-01T04:57:03.212Z,90.6
2018-01-01T05:02:03.413Z,90.4
2018-01-01T05:07:03.548Z,89.8
2018-01-01T05:12:03.185Z,89.3
2018-01-01T05:17:03.911Z,88.8
2018-01-01T05:22:03.977Z,88.8
2018-01-01T05:27:04.039Z,89.0
2018-01-01T05:32:04.012Z,89.0
2018-01-01T05:37:03.200Z,89.1
2018-01-01T05:42:03.512Z,89.1
2018-01-01T05:47:03.409Z,88.9
2018-01-01T05:52:03.520Z,88.9
2018-01-01T05:57:03.493Z,88.4
2018-01-01T06:02:03.656Z,89.5
2018-01-01T06:07:03.280Z,89.9
2018-01-01T06:12:03.514Z,90.0
2018-01-01T06:17:03.617Z,90.1
2018-01-01T06:22:03.788Z,90.9
2018-01-01T06:27:03.871Z,91.3
2018-01-01T06:32:03.407Z,91.8
2018-01-01T06:37:03.559Z,91.6
2018-01-01T06:42:03.079Z,92.1
2018-01-01T06:47:13.347Z,92.1
2018-01-01T06:52:03.673Z,91.8
2018-01-01T06:57:03.664Z,91.8
2018-01-01T07:02:24.107Z,91.0
2018-01-01T07:07:03.241Z,91.4
2018-01-01T07:12:03.162Z,91.4
2018-01-01T07:17:28.567Z,90.2
2018-01-01T07:22:03.169Z,90.5
2018-01-01T07:27:03.280Z,90.5
2018-01-01T07:32:25.940Z,91.8
2018-01-01T07:37:03.369Z,91.6
2018-01-01T07:42:03.260Z,91.7
2018-01-01T07:47:28.147Z,92.0
2018-01-01T07:52:03.443Z,91.3
2018-01-01T07:57:03.809Z,91.1
2018-01-01T08:02:22.394Z,91.2
2018-01-01T08:07:03.119Z,91.0
2018-01-01T08:12:03.398Z,90.9
2018-01-01T08:17:27.530Z,91.2
2018-01-01T08:22:03.257Z,90.9
2018-01-01T08:27:03.281Z,90.7
2018-01-01T08:32:23.604Z,91.0
2018-01-01T08:37:03.101Z,90.9
2018-01-01T08:42:03.180Z,89.9
2018-01-01T08:47:23.820Z,89.9
2018-01-01T08:52:03.093Z,89.0
2018-01-01T08:57:03.649Z,89.0
2018-01-01T09:02:24.522Z,88.9
2018-01-01T09:07:03.854Z,89.1
2018-01-01T09:12:04.071Z,88.4
2018-01-01T09:17:28.502Z,88.4
2018-01-01T09:22:03.612Z,88.4
2018-01-01T09:27:03.761Z,87.4
2018-01-01T09:32:28.197Z,87.4
2018-01-01T09:37:03.663Z,86.3
2018-01-01T09:42:03.885Z,86.2
2018-01-01T09:47:28.548Z,86.5
2018-01-01T09:52:03.892Z,86.4
2018-01-01T09:57:03.303Z,86.4
2018-01-01T10:02:27.835Z,86.2
2018-01-01T10:12:08.718Z,85.6
2018-01-01T10:17:25.076Z,85.9
2018-01-01T10:22:03.431Z,84.9
2018-01-01T10:27:03.402Z,84.4
2018-01-01T10:32:30.908Z,84.4
2018-01-01T10:37:03.910Z,84.2
2018-01-01T10:42:03.097Z,84.5
2018-01-01T10:47:23.531Z,84.5
2018-01-01T10:52:03.001Z,84.5
2018-01-01T10:57:03.397Z,84.2
2018-01-01T11:02:24.821Z,84.6
2018-01-01T11:07:03.467Z,85.1
2018-01-01T11:12:03.308Z,85.2
2018-01-01T11:17:28.006Z,85.0
2018-01-01T11:22:03.365Z,85.2
2018-01-01T11:27:03.273Z,84.7
2018-01-01T11:32:24.615Z,84.0
2018-01-01T11:37:03.231Z,84.1
2018-01-01T11:42:03.455Z,83.7
2018-01-01T11:47:26.236Z,83.5
2018-01-01T11:52:03.231Z,83.6
2018-01-01T11:57:03.156Z,84.3
2018-01-01T12:02:28.389Z,84.2
2018-01-01T12:07:03.660Z,83.9
2018-01-01T12:12:03.872Z,83.9
2018-01-01T12:17:22.667Z,84.0
2018-01-01T12:22:03.189Z,83.4
2018-01-01T12:27:03.194Z,83.5
2018-01-01T12:32:27.507Z,83.2
2018-01-01T12:37:03.950Z,81.8
2018-01-01T12:42:03.990Z,81.8
2018-01-01T12:47:28.203Z,82.0
2018-01-01T12:52:03.714Z,82.1
2018-01-01T12:57:03.719Z,82.5
2018-01-01T13:02:28.177Z,83.0
2018-01-01T13:07:03.288Z,83.0
2018-01-01T13:12:03.539Z,83.3
2018-01-01T13:17:28.925Z,83.0
2018-01-01T13:22:03.770Z,82.6
2018-01-01T13:27:03.313Z,83.2
2018-01-01T13:32:26.144Z,83.2
2018-01-01T13:37:03.321Z,83.6
2018-01-01T13:42:03.232Z,83.9
2018-01-01T13:47:28.320Z,84.2
2018-01-01T13:52:03.318Z,84.2
2018-01-01T13:57:03.126Z,83.9
2018-01-01T14:02:21.575Z,83.8
2018-01-01T14:07:03.286Z,84.2
2018-01-01T14:12:03.390Z,84.0
2018-01-01T14:17:27.707Z,84.3
2018-01-01T14:22:03.348Z,84.6
2018-01-01T14:27:03.199Z,84.8
2018-01-01T14:32:12.440Z,84.8
2018-01-01T14:37:03.314Z,84.8
2018-01-01T14:42:03.628Z,84.8
2018-01-01T14:47:29.661Z,84.7
2018-01-01T14:52:03.382Z,85.0
2018-01-01T14:57:03.271Z,85.0
2018-01-01T15:02:24.062Z,85.0
2018-01-01T15:07:03.506Z,85.0
2018-01-01T15:12:03.367Z,84.8
2018-01-01T15:17:26.063Z,84.5
2018-01-01T15:22:03.994Z,84.5
2018-01-01T15:27:03.464Z,84.9
2018-01-01T15:32:24.071Z,84.9
2018-01-01T15:37:03.605Z,84.8
2018-01-01T15:42:03.345Z,85.0
2018-01-01T15:47:29.656Z,85.3
2018-01-01T15:52:03.727Z,85.4
2018-01-01T15:57:03.183Z,85.3
2018-01-01T16:02:27.509Z,85.5
2018-01-01T16:07:03.762Z,85.4
2018-01-01T16:12:04.002Z,85.2
2018-01-01T16:17:12.118Z,85.2
2018-01-01T16:22:03.366Z,85.0
2018-01-01T16:27:03.925Z,84.8
2018-01-01T16:32:03.774Z,84.9
2018-01-01T16:37:03.964Z,84.7
2018-01-01T16:42:03.465Z,84.9
2018-01-01T16:47:03.694Z,84.6
2018-01-01T16:52:03.889Z,84.4
2018-01-01T16:57:03.922Z,84.0
2018-01-01T17:02:03.403Z,84.2
2018-01-01T17:07:03.548Z,84.2
2018-01-01T17:12:03.947Z,84.5
2018-01-01T17:17:03.616Z,84.2
2018-01-01T17:22:03.251Z,84.3
2018-01-01T17:27:03.388Z,84.3
2018-01-01T17:32:03.555Z,84.3
2018-01-01T17:37:03.592Z,84.2
2018-01-01T17:42:03.711Z,84.1
2018-01-01T17:47:04.039Z,84.1
2018-01-01T17:52:03.263Z,84.2
2018-01-01T17:57:03.495Z,84.1
2018-01-01T18:02:03.904Z,84.1
2018-01-01T18:07:04.083Z,84.2
2018-01-01T18:12:03.481Z,84.0
2018-01-01T18:17:03.593Z,83.9
2018-01-01T18:22:03.712Z,84.0
2018-01-01T18:27:03.837Z,84.2
2018-01-01T18:32:04.047Z,84.4
2018-01-01T18:37:03.217Z,84.4
2018-01-01T18:42:03.299Z,84.2
2018-01-01T18:47:07.411Z,84.2
2018-01-01T18:52:03.047Z,84.1
2018-01-01T18:57:03.438Z,84.1
2018-01-01T19:02:03.373Z,84.0
2018-01-01T19:07:03.699Z,83.8
2018-01-01T19:12:03.234Z,84.1
2018-01-01T19:17:03.957Z,84.1
2018-01-01T19:22:03.184Z,84.9
2018-01-01T19:27:03.575Z,84.7
2018-01-01T19:32:04.137Z,84.4
2018-01-01T19:37:03.402Z,84.1
2018-01-01T19:42:03.564Z,84.4
2018-01-01T19:47:03.851Z,84.4
2018-01-01T19:52:03.202Z,84.3
2018-01-01T19:57:03.494Z,84.2
2018-01-01T20:02:03.702Z,84.2
2018-01-01T20:07:03.190Z,84.2
2018-01-01T20:12:03.588Z,84.5
2018-01-01T20:17:04.111Z,84.5
2018-01-01T20:22:03.399Z,84.2
2018-01-01T20:27:03.676Z,85.3
2018-01-01T20:32:03.962Z,86.1
2018-01-01T20:37:03.395Z,86.7
2018-01-01T20:42:03.624Z,86.6
2018-01-01T20:47:03.824Z,86.8
2018-01-01T20:52:03.135Z,86.8
2018-01-01T20:57:03.421Z,86.9
2018-01-01T21:02:03.672Z,87.0
2018-01-01T21:07:03.896Z,87.2
2018-01-01T21:12:03.273Z,87.2
2018-01-01T21:17:03.567Z,87.5
2018-01-01T21:22:03.798Z,88.0
2018-01-01T21:27:03.912Z,88.0
2018-01-01T21:32:06.555Z,88.9
2018-01-01T21:37:03.803Z,89.3
2018-01-01T21:42:04.049Z,89.3
2018-01-01T21:47:04.330Z,89.5
2018-01-01T21:52:04.234Z,89.4
2018-01-01T21:57:03.448Z,89.6
2018-01-01T22:02:14.005Z,89.8
2018-01-01T22:07:04.454Z,89.9
2018-01-01T22:12:03.837Z,89.7
2018-01-01T22:17:05.188Z,89.7
2018-01-01T22:22:03.647Z,90.1
2018-01-01T22:27:03.983Z,93.5
2018-01-01T22:32:04.155Z,95.6
2018-01-01T22:37:04.202Z,95.6
2018-01-01T22:42:04.270Z,95.5
2018-01-01T22:47:06.236Z,96.7
2018-01-01T22:52:04.219Z,96.6
2018-01-01T22:57:04.061Z,96.5
2018-01-01T23:02:04.115Z,97.2
2018-01-01T23:07:04.266Z,97.5
2018-01-01T23:12:03.899Z,97.5
2018-01-01T23:22:03.533Z,98.1
2018-01-01T23:27:03.368Z,97.8
2018-01-01T23:32:03.646Z,98.0
2018-01-01T23:37:03.538Z,98.4
2018-01-01T23:42:03.450Z,98.8
2018-01-01T23:47:03.595Z,98.8
2018-01-01T23:52:03.293Z,98.8
2018-01-01T23:57:03.280Z,99.2
